TimePDT,TemperatureF,Dew PointF,Humidity,Sea Level PressureIn,VisibilityMPH,Wind Direction,Wind SpeedMPH,Gust SpeedMPH,PrecipitationIn,Events,Conditions,WindDirDegrees,DateUTC
12:53 AM,91.9,59.0,33,29.74,10.0,SSE,8.1,-,N/A,,Clear,150,2013-08-21 07:53:00
1:53 AM,90.0,59.0,35,29.74,10.0,SE,5.8,-,N/A,,Clear,130,2013-08-21 08:53:00
2:53 AM,88.0,61.0,40,29.73,10.0,ESE,5.8,-,N/A,,Clear,120,2013-08-21 09:53:00
3:53 AM,87.1,64.9,48,29.73,10.0,Calm,Calm,-,N/A,,Clear,0,2013-08-21 10:53:00
4:53 AM,84.9,64.0,49,29.73,10.0,Calm,Calm,-,N/A,,Clear,0,2013-08-21 11:53:00
5:53 AM,81.0,64.0,56,29.74,10.0,East,5.8,-,N/A,,Clear,80,2013-08-21 12:53:00
6:53 AM,84.9,66.0,53,29.76,10.0,SE,4.6,-,N/A,,Clear,140,2013-08-21 13:53:00
7:53 AM,86.0,69.1,57,29.78,10.0,WNW,3.5,-,N/A,,Clear,290,2013-08-21 14:53:00
8:53 AM,87.1,69.1,55,29.80,10.0,Calm,Calm,-,N/A,,Clear,0,2013-08-21 15:53:00
9:53 AM,93.9,66.9,41,29.80,10.0,Calm,Calm,-,N/A,,Clear,0,2013-08-21 16:53:00
10:53 AM,100.0,63.0,29,29.80,10.0,East,6.9,-,N/A,,Clear,90,2013-08-21 17:53:00
11:53 AM,100.9,64.0,30,29.79,10.0,Variable,3.5,-,N/A,,Clear,0,2013-08-21 18:53:00
12:53 PM,105.1,61.0,24,29.77,10.0,Variable,6.9,-,N/A,,Clear,0,2013-08-21 19:53:00
1:53 PM,108.0,60.1,21,29.75,10.0,ESE,8.1,-,N/A,,Clear,120,2013-08-21 20:53:00
2:53 PM,109.9,50.0,14,29.72,10.0,East,10.4,17.3,N/A,,Partly Cloudy,100,2013-08-21 21:53:00
3:53 PM,109.0,57.9,19,29.69,10.0,ESE,13.8,-,N/A,,Partly Cloudy,120,2013-08-21 22:53:00
4:53 PM,109.9,54.0,16,29.69,10.0,SE,16.1,-,N/A,,Partly Cloudy,140,2013-08-21 23:53:00
5:53 PM,107.1,55.9,19,29.68,10.0,SE,18.4,-,N/A,,Clear,130,2013-08-22 00:53:00
6:53 PM,100.9,60.1,26,29.69,10.0,SSW,8.1,-,N/A,,Clear,210,2013-08-22 01:53:00
7:53 PM,100.0,60.1,27,29.70,10.0,South,4.6,-,N/A,,Clear,180,2013-08-22 02:53:00
8:53 PM,100.0,60.1,27,29.73,10.0,SE,8.1,-,N/A,,Clear,130,2013-08-22 03:53:00
9:53 PM,97.0,57.9,27,29.74,10.0,SSW,6.9,-,N/A,,Clear,210,2013-08-22 04:53:00
10:53 PM,97.0,57.0,26,29.73,10.0,SW,10.4,-,N/A,,Clear,230,2013-08-22 05:53:00
11:53 PM,93.9,57.0,29,29.75,10.0,SSE,3.5,-,N/A,,Clear,150,2013-08-22 06:53:00